This demonstration page uses our WeatherBlox Daily Observations layout. Learn more.

39.92423, -83.80882

Hourly Observations for December 19, 2019

Temp ( °F °C ) Dew Point ( °F °C ) Humidity (%) Winds ( mph kmh ) Pressure ( in mb ) Visibility ( mi km ) Precip ( " mm )
12:56 am 00:56 Clear 11 -11.7 7 -13.9 84 84 W 5 7 30.44 1031 10 16.0934 0 0
1:56 am 01:56 Clear 9 -12.8 7 -13.9 92 92 Calm 30.44 1031 10 16.0934 0 0
2:56 am 02:56 Clear 9 -12.8 7 -13.9 92 92 S 3 6 30.46 1031 10 16.0934 0 0
3:56 am 03:56 Clear 9 -12.8 7 -13.9 92 92 S 5 7 30.45 1031 10 16.0934 0 0
4:56 am 04:56 Clear 9 -12.8 7 -13.9 92 92 SW 5 7 30.47 1032 10 16.0934 0 0
5:56 am 05:56 Clear 8 -13.3 6 -14.4 92 92 Calm 30.48 1032 10 16.0934 0 0
6:56 am 06:56 Clear 6 -14.4 4 -15.6 91 91 SSE 5 7 30.48 1032 10 16.0934 0 0
7:56 am 07:56 Sunny 10 -12.2 7 -13.9 87 87 S 3 6 30.5 1033 10 16.0934 0 0
8:56 am 08:56 Sunny 13 -10.6 9 -12.8 84 84 S 6 9 30.5 1033 10 16.0934 0 0
9:56 am 09:56 Sunny 18 -7.8 12 -11.1 77 77 S 9 15 30.5 1033 10 16.0934 0 0
10:56 am 10:56 Sunny 21 -6.1 14 -10 74 74 S 7 11 30.49 1033 10 16.0934 0 0
11:56 am 11:56 Sunny 24 -4.4 15 -9.4 68 68 S 7 11 30.48 1032 10 16.0934 0 0
12:56 pm 12:56 Sunny 26 -3.3 16 -8.9 66 66 S 10 17 30.43 1031 10 16.0934 0 0
1:56 pm 13:56 Sunny 29 -1.7 17 -8.3 61 61 S 12 19 30.41 1030 10 16.0934 0 0
2:56 pm 14:56 Sunny 30 -1.1 18 -7.8 61 61 S 10 17 30.4 1030 10 16.0934 0 0
3:56 pm 15:56 Sunny 31 -0.6 19 -7.2 61 61 S 9 15 30.4 1029 10 16.0934 0 0
4:56 pm 16:56 Sunny 30 -1.1 20 -6.7 66 66 S 8 13 30.39 1029 10 16.0934 0 0
5:56 pm 17:56 Clear 29 -1.7 20 -6.7 69 69 SSW 6 9 30.4 1030 10 16.0934 0 0
6:56 pm 18:56 Clear 30 -1.1 21 -6.1 69 69 SSW 14 22 30.39 1029 10 16.0934 0 0
7:56 pm 19:56 Clear 31 -0.6 21 -6.1 67 67 SSW 15 24 30.38 1029 10 16.0934 0 0
8:56 pm 20:56 Clear 31 -0.6 22 -5.6 69 69 SW 15 24 30.4 1029 10 16.0934 0 0
9:56 pm 21:56 Clear 29 -1.7 22 -5.6 75 75 WSW 8 13 30.42 1030 10 16.0934 0 0
10:56 pm 22:56 Clear 27 -2.8 21 -6.1 78 78 SW 6 9 30.42 1030 10 16.0934 0 0
11:56 pm 23:56 Clear 24 -4.4 20 -6.7 84 84 SW 3 6 30.44 1031 10 16.0934 0 0

Powered by AerisWeather